sensor_id;sensor_type;location;lat;lon;timestamp;pressure;altitude;pressure_sealevel;temperature;humidity
33781;BME280;20097;50.832;19.100;2023-08-30T00:00:48;97154.06;;;16.78;100.00
33781;BME280;20097;50.832;19.100;2023-08-30T00:05:53;97147.19;;;16.77;100.00
33781;BME280;20097;50.832;19.100;2023-08-30T00:10:58;97129.16;;;16.69;100.00
33781;BME280;20097;50.832;19.100;2023-08-30T00:16:02;97125.00;;;16.73;100.00
33781;BME280;20097;50.832;19.100;2023-08-30T00:21:07;97126.69;;;16.79;100.00
33781;BME280;20097;50.832;19.100;2023-08-30T00:26:12;97130.34;;;16.78;100.00
33781;BME280;20097;50.832;19.100;2023-08-30T00:31:16;97135.38;;;16.63;100.00
33781;BME280;20097;50.832;19.100;2023-08-30T00:36:22;97120.69;;;16.67;100.00
33781;BME280;20097;50.832;19.100;2023-08-30T00:41:27;97130.03;;;16.58;100.00
33781;BME280;20097;50.832;19.100;2023-08-30T00:46:31;97123.66;;;16.42;100.00
33781;BME280;20097;50.832;19.100;2023-08-30T00:51:38;97121.41;;;16.46;100.00
33781;BME280;20097;50.832;19.100;2023-08-30T00:56:42;97109.84;;;16.47;100.00
33781;BME280;20097;50.832;19.100;2023-08-30T01:01:47;97121.41;;;16.46;100.00
33781;BME280;20097;50.832;19.100;2023-08-30T01:06:52;97130.56;;;16.43;100.00
33781;BME280;20097;50.832;19.100;2023-08-30T01:11:58;97105.69;;;16.51;100.00
33781;BME280;20097;50.832;19.100;2023-08-30T01:17:04;97107.88;;;16.42;100.00
33781;BME280;20097;50.832;19.100;2023-08-30T01:22:15;97114.25;;;16.30;100.00
33781;BME280;20097;50.832;19.100;2023-08-30T01:27:22;97092.38;;;16.29;100.00
33781;BME280;20097;50.832;19.100;2023-08-30T01:32:27;97092.47;;;16.18;100.00
33781;BME280;20097;50.832;19.100;2023-08-30T01:37:33;97089.19;;;16.11;100.00
33781;BME280;20097;50.832;19.100;2023-08-30T01:42:39;97079.22;;;16.13;100.00
33781;BME280;20097;50.832;19.100;2023-08-30T01:47:44;97066.41;;;16.16;100.00
33781;BME280;20097;50.832;19.100;2023-08-30T01:52:51;97067.00;;;16.23;100.00
33781;BME280;20097;50.832;19.100;2023-08-30T01:57:57;97062.22;;;16.20;100.00
33781;BME280;20097;50.832;19.100;2023-08-30T02:03:07;97066.84;;;16.13;100.00
33781;BME280;20097;50.832;19.100;2023-08-30T02:08:14;97065.31;;;16.01;100.00
33781;BME280;20097;50.832;19.100;2023-08-30T02:13:25;97056.38;;;16.02;100.00
33781;BME280;20097;50.832;19.100;2023-08-30T02:18:30;97058.38;;;15.95;100.00
33781;BME280;20097;50.832;19.100;2023-08-30T02:23:37;97056.84;;;15.99;100.00
33781;BME280;20097;50.832;19.100;2023-08-30T02:28:42;97068.75;;;16.01;100.00
33781;BME280;20097;50.832;19.100;2023-08-30T02:33:47;97063.66;;;15.95;100.00
33781;BME280;20097;50.832;19.100;2023-08-30T02:38:51;97060.94;;;15.90;100.00
33781;BME280;20097;50.832;19.100;2023-08-30T02:43:57;97059.97;;;15.96;100.00
33781;BME280;20097;50.832;19.100;2023-08-30T02:49:01;97069.53;;;16.02;100.00
33781;BME280;20097;50.832;19.100;2023-08-30T02:54:05;97077.38;;;15.97;100.00
33781;BME280;20097;50.832;19.100;2023-08-30T02:59:12;97087.41;;;16.00;100.00
33781;BME280;20097;50.832;19.100;2023-08-30T03:04:16;97080.69;;;15.92;100.00
33781;BME280;20097;50.832;19.100;2023-08-30T03:09:21;97081.84;;;15.96;100.00
33781;BME280;20097;50.832;19.100;2023-08-30T03:14:27;97072.25;;;15.90;100.00
33781;BME280;20097;50.832;19.100;2023-08-30T03:19:31;97060.50;;;15.81;100.00
33781;BME280;20097;50.832;19.100;2023-08-30T03:24:35;97059.41;;;15.77;100.00
33781;BME280;20097;50.832;19.100;2023-08-30T03:29:41;97056.63;;;15.84;100.00
33781;BME280;20097;50.832;19.100;2023-08-30T03:34:45;97053.31;;;15.77;100.00
33781;BME280;20097;50.832;19.100;2023-08-30T03:39:49;97069.69;;;15.79;100.00
33781;BME280;20097;50.832;19.100;2023-08-30T03:44:55;97060.84;;;15.85;100.00
33781;BME280;20097;50.832;19.100;2023-08-30T03:49:59;97055.09;;;15.88;100.00
33781;BME280;20097;50.832;19.100;2023-08-30T03:55:04;97063.94;;;15.82;100.00
33781;BME280;20097;50.832;19.100;2023-08-30T04:00:11;97068.88;;;15.78;100.00
33781;BME280;20097;50.832;19.100;2023-08-30T04:05:18;97067.03;;;15.79;100.00
33781;BME280;20097;50.832;19.100;2023-08-30T04:10:21;97062.56;;;15.79;100.00
33781;BME280;20097;50.832;19.100;2023-08-30T04:15:27;97076.06;;;15.83;100.00
33781;BME280;20097;50.832;19.100;2023-08-30T04:20:31;97083.84;;;15.78;100.00
33781;BME280;20097;50.832;19.100;2023-08-30T04:25:36;97087.38;;;15.83;100.00
33781;BME280;20097;50.832;19.100;2023-08-30T04:30:42;97088.19;;;15.84;100.00
33781;BME280;20097;50.832;19.100;2023-08-30T04:35:50;97095.91;;;15.74;100.00
33781;BME280;20097;50.832;19.100;2023-08-30T04:40:57;97084.00;;;15.71;100.00
33781;BME280;20097;50.832;19.100;2023-08-30T04:46:07;97085.94;;;15.76;100.00
33781;BME280;20097;50.832;19.100;2023-08-30T04:51:11;97085.88;;;15.87;100.00
33781;BME280;20097;50.832;19.100;2023-08-30T04:56:16;97078.78;;;15.88;100.00
33781;BME280;20097;50.832;19.100;2023-08-30T05:01:22;97091.41;;;15.74;100.00
33781;BME280;20097;50.832;19.100;2023-08-30T05:06:29;97088.25;;;15.89;100.00
33781;BME280;20097;50.832;19.100;2023-08-30T05:11:33;97098.25;;;15.87;100.00
33781;BME280;20097;50.832;19.100;2023-08-30T05:16:39;97104.38;;;15.92;100.00
33781;BME280;20097;50.832;19.100;2023-08-30T05:21:43;97108.44;;;15.83;100.00
33781;BME280;20097;50.832;19.100;2023-08-30T05:26:49;97102.03;;;15.79;100.00
33781;BME280;20097;50.832;19.100;2023-08-30T05:31:55;97096.22;;;15.77;100.00
33781;BME280;20097;50.832;19.100;2023-08-30T05:37:11;97098.38;;;15.80;100.00
33781;BME280;20097;50.832;19.100;2023-08-30T05:42:38;97097.91;;;15.83;100.00
33781;BME280;20097;50.832;19.100;2023-08-30T05:47:44;97110.50;;;15.81;100.00
33781;BME280;20097;50.832;19.100;2023-08-30T05:52:48;97110.69;;;15.91;100.00
33781;BME280;20097;50.832;19.100;2023-08-30T05:57:54;97114.94;;;15.81;100.00
33781;BME280;20097;50.832;19.100;2023-08-30T06:02:59;97122.25;;;15.90;100.00
33781;BME280;20097;50.832;19.100;2023-08-30T06:08:04;97128.69;;;15.83;100.00
33781;BME280;20097;50.832;19.100;2023-08-30T06:13:08;97143.75;;;15.87;100.00
33781;BME280;20097;50.832;19.100;2023-08-30T06:18:14;97139.78;;;15.85;100.00
33781;BME280;20097;50.832;19.100;2023-08-30T06:23:18;97143.81;;;15.76;100.00
33781;BME280;20097;50.832;19.100;2023-08-30T06:28:23;97145.59;;;15.87;100.00
33781;BME280;20097;50.832;19.100;2023-08-30T06:33:29;97167.56;;;15.81;100.00
33781;BME280;20097;50.832;19.100;2023-08-30T06:38:33;97165.38;;;15.89;100.00
33781;BME280;20097;50.832;19.100;2023-08-30T06:43:37;97170.00;;;15.82;100.00
33781;BME280;20097;50.832;19.100;2023-08-30T06:48:43;97182.09;;;15.83;100.00
33781;BME280;20097;50.832;19.100;2023-08-30T06:53:47;97189.28;;;15.88;100.00
33781;BME280;20097;50.832;19.100;2023-08-30T06:58:51;97185.53;;;15.84;100.00
33781;BME280;20097;50.832;19.100;2023-08-30T07:03:57;97192.84;;;15.93;100.00
33781;BME280;20097;50.832;19.100;2023-08-30T07:09:02;97197.63;;;15.96;100.00
33781;BME280;20097;50.832;19.100;2023-08-30T07:14:09;97200.63;;;15.88;100.00
33781;BME280;20097;50.832;19.100;2023-08-30T07:19:14;97198.34;;;15.92;100.00
33781;BME280;20097;50.832;19.100;2023-08-30T07:24:18;97196.06;;;16.12;100.00
33781;BME280;20097;50.832;19.100;2023-08-30T07:29:22;97204.69;;;16.07;100.00
33781;BME280;20097;50.832;19.100;2023-08-30T07:34:28;97214.03;;;16.15;100.00
33781;BME280;20097;50.832;19.100;2023-08-30T07:39:32;97224.38;;;16.05;100.00
33781;BME280;20097;50.832;19.100;2023-08-30T07:44:36;97224.50;;;16.10;100.00
33781;BME280;20097;50.832;19.100;2023-08-30T07:49:43;97235.56;;;16.12;100.00
33781;BME280;20097;50.832;19.100;2023-08-30T07:54:48;97243.81;;;16.04;100.00
33781;BME280;20097;50.832;19.100;2023-08-30T07:59:52;97236.03;;;16.09;100.00
33781;BME280;20097;50.832;19.100;2023-08-30T08:04:58;97227.38;;;15.97;100.00
33781;BME280;20097;50.832;19.100;2023-08-30T08:10:03;97227.28;;;15.92;100.00
33781;BME280;20097;50.832;19.100;2023-08-30T08:15:08;97230.59;;;15.87;100.00
33781;BME280;20097;50.832;19.100;2023-08-30T08:20:14;97234.84;;;15.88;100.00
33781;BME280;20097;50.832;19.100;2023-08-30T08:25:18;97231.16;;;15.89;100.00
33781;BME280;20097;50.832;19.100;2023-08-30T08:30:23;97232.81;;;15.79;100.00
33781;BME280;20097;50.832;19.100;2023-08-30T08:35:29;97223.28;;;15.78;100.00
33781;BME280;20097;50.832;19.100;2023-08-30T08:40:36;97219.88;;;15.77;100.00
33781;BME280;20097;50.832;19.100;2023-08-30T08:45:41;97216.06;;;15.85;100.00
33781;BME280;20097;50.832;19.100;2023-08-30T08:50:48;97220.97;;;15.93;100.00
33781;BME280;20097;50.832;19.100;2023-08-30T08:55:53;97232.66;;;15.97;100.00
33781;BME280;20097;50.832;19.100;2023-08-30T09:00:58;97234.56;;;16.01;100.00
33781;BME280;20097;50.832;19.100;2023-08-30T09:06:04;97237.81;;;15.92;100.00
33781;BME280;20097;50.832;19.100;2023-08-30T09:11:08;97241.59;;;15.84;100.00
33781;BME280;20097;50.832;19.100;2023-08-30T09:16:13;97241.59;;;15.84;100.00
33781;BME280;20097;50.832;19.100;2023-08-30T09:21:19;97247.28;;;15.93;100.00
33781;BME280;20097;50.832;19.100;2023-08-30T09:26:23;97255.06;;;15.99;100.00
33781;BME280;20097;50.832;19.100;2023-08-30T09:31:32;97267.03;;;16.07;100.00
33781;BME280;20097;50.832;19.100;2023-08-30T09:36:39;97260.50;;;16.21;100.00
33781;BME280;20097;50.832;19.100;2023-08-30T09:41:44;97276.50;;;16.31;100.00
33781;BME280;20097;50.832;19.100;2023-08-30T09:46:50;97275.09;;;16.40;100.00
33781;BME280;20097;50.832;19.100;2023-08-30T09:51:57;97264.16;;;16.60;100.00
33781;BME280;20097;50.832;19.100;2023-08-30T09:57:04;97274.50;;;16.78;100.00
33781;BME280;20097;50.832;19.100;2023-08-30T10:02:08;97292.72;;;16.96;100.00
33781;BME280;20097;50.832;19.100;2023-08-30T10:07:14;97311.81;;;17.03;100.00
33781;BME280;20097;50.832;19.100;2023-08-30T10:12:20;97320.56;;;17.36;100.00
33781;BME280;20097;50.832;19.100;2023-08-30T10:17:27;97325.22;;;17.62;100.00
33781;BME280;20097;50.832;19.100;2023-08-30T10:22:34;97344.88;;;17.55;100.00
33781;BME280;20097;50.832;19.100;2023-08-30T10:27:42;97351.03;;;17.60;100.00
33781;BME280;20097;50.832;19.100;2023-08-30T10:32:47;97364.16;;;17.55;100.00
33781;BME280;20097;50.832;19.100;2023-08-30T10:37:56;97361.03;;;17.58;100.00
33781;BME280;20097;50.832;19.100;2023-08-30T10:43:01;97369.19;;;17.57;100.00
33781;BME280;20097;50.832;19.100;2023-08-30T10:48:06;97361.28;;;17.73;100.00
33781;BME280;20097;50.832;19.100;2023-08-30T10:53:14;97375.13;;;17.81;100.00
33781;BME280;20097;50.832;19.100;2023-08-30T10:58:19;97369.78;;;18.14;100.00
33781;BME280;20097;50.832;19.100;2023-08-30T11:03:23;97372.78;;;18.39;100.00
33781;BME280;20097;50.832;19.100;2023-08-30T11:08:29;97378.09;;;18.06;100.00
33781;BME280;20097;50.832;19.100;2023-08-30T11:13:33;97368.59;;;18.05;100.00
33781;BME280;20097;50.832;19.100;2023-08-30T11:18:38;97364.06;;;18.00;100.00
33781;BME280;20097;50.832;19.100;2023-08-30T11:23:45;97353.19;;;17.80;100.00
33781;BME280;20097;50.832;19.100;2023-08-30T11:28:50;97344.06;;;17.71;100.00
33781;BME280;20097;50.832;19.100;2023-08-30T11:33:56;97345.69;;;18.10;100.00
33781;BME280;20097;50.832;19.100;2023-08-30T11:39:01;97351.16;;;18.42;100.00
33781;BME280;20097;50.832;19.100;2023-08-30T11:44:06;97354.94;;;18.51;100.00
33781;BME280;20097;50.832;19.100;2023-08-30T11:49:11;97353.00;;;18.41;100.00
33781;BME280;20097;50.832;19.100;2023-08-30T11:54:17;97364.75;;;18.34;100.00
33781;BME280;20097;50.832;19.100;2023-08-30T11:59:22;97361.91;;;18.19;100.00
33781;BME280;20097;50.832;19.100;2023-08-30T12:04:26;97363.88;;;18.07;100.00
33781;BME280;20097;50.832;19.100;2023-08-30T12:09:50;97347.53;;;18.10;100.00
33781;BME280;20097;50.832;19.100;2023-08-30T12:14:54;97347.69;;;18.20;100.00
33781;BME280;20097;50.832;19.100;2023-08-30T12:19:59;97346.50;;;18.49;100.00
33781;BME280;20097;50.832;19.100;2023-08-30T12:25:42;97350.28;;;17.98;100.00
33781;BME280;20097;50.832;19.100;2023-08-30T12:30:46;97353.00;;;18.03;100.00
33781;BME280;20097;50.832;19.100;2023-08-30T12:35:50;97346.34;;;18.01;100.00
33781;BME280;20097;50.832;19.100;2023-08-30T12:40:56;97348.50;;;18.04;100.00
33781;BME280;20097;50.832;19.100;2023-08-30T12:46:01;97357.31;;;18.47;100.00
33781;BME280;20097;50.832;19.100;2023-08-30T12:51:07;97360.69;;;18.64;100.00
33781;BME280;20097;50.832;19.100;2023-08-30T12:56:13;97360.78;;;18.74;100.00
33781;BME280;20097;50.832;19.100;2023-08-30T13:01:17;97366.19;;;18.41;100.00
33781;BME280;20097;50.832;19.100;2023-08-30T13:06:22;97353.38;;;18.50;100.00
33781;BME280;20097;50.832;19.100;2023-08-30T13:11:27;97353.50;;;18.60;100.00
33781;BME280;20097;50.832;19.100;2023-08-30T13:16:33;97348.00;;;18.66;100.00
33781;BME280;20097;50.832;19.100;2023-08-30T13:21:38;97345.56;;;18.60;100.00
33781;BME280;20097;50.832;19.100;2023-08-30T13:26:45;97352.66;;;18.38;100.00
33781;BME280;20097;50.832;19.100;2023-08-30T13:31:49;97358.72;;;18.17;100.00
33781;BME280;20097;50.832;19.100;2023-08-30T13:36:53;97367.97;;;18.36;100.00
33781;BME280;20097;50.832;19.100;2023-08-30T13:41:59;97368.34;;;18.44;100.00
33781;BME280;20097;50.832;19.100;2023-08-30T13:47:03;97371.94;;;18.55;100.00
33781;BME280;20097;50.832;19.100;2023-08-30T13:52:10;97365.47;;;18.67;100.00
33781;BME280;20097;50.832;19.100;2023-08-30T13:57:16;97367.41;;;18.77;100.00
33781;BME280;20097;50.832;19.100;2023-08-30T14:02:21;97373.56;;;18.61;100.00
33781;BME280;20097;50.832;19.100;2023-08-30T14:07:25;97372.94;;;18.32;100.00
33781;BME280;20097;50.832;19.100;2023-08-30T14:12:31;97372.19;;;18.37;100.00
33781;BME280;20097;50.832;19.100;2023-08-30T14:17:36;97368.31;;;18.23;100.00
33781;BME280;20097;50.832;19.100;2023-08-30T14:22:40;97371.81;;;18.07;100.00
33781;BME280;20097;50.832;19.100;2023-08-30T14:27:46;97371.97;;;18.00;100.00
33781;BME280;20097;50.832;19.100;2023-08-30T14:32:50;97371.91;;;17.78;100.00
33781;BME280;20097;50.832;19.100;2023-08-30T14:37:54;97377.78;;;18.02;100.00
33781;BME280;20097;50.832;19.100;2023-08-30T14:43:00;97377.63;;;18.09;100.00
33781;BME280;20097;50.832;19.100;2023-08-30T14:48:04;97369.88;;;18.02;100.00
33781;BME280;20097;50.832;19.100;2023-08-30T14:53:08;97380.91;;;17.99;100.00
33781;BME280;20097;50.832;19.100;2023-08-30T14:58:14;97381.09;;;17.93;100.00
33781;BME280;20097;50.832;19.100;2023-08-30T15:03:18;97386.69;;;17.96;100.00
33781;BME280;20097;50.832;19.100;2023-08-30T15:08:23;97396.41;;;17.74;100.00
33781;BME280;20097;50.832;19.100;2023-08-30T15:13:29;97394.44;;;17.69;100.00
33781;BME280;20097;50.832;19.100;2023-08-30T15:18:33;97408.78;;;17.57;100.00
33781;BME280;20097;50.832;19.100;2023-08-30T15:23:38;97416.44;;;17.30;100.00
33781;BME280;20097;50.832;19.100;2023-08-30T15:28:44;97418.03;;;17.15;100.00
33781;BME280;20097;50.832;19.100;2023-08-30T15:33:49;97415.06;;;17.11;100.00
33781;BME280;20097;50.832;19.100;2023-08-30T15:38:53;97415.59;;;16.97;100.00
33781;BME280;20097;50.832;19.100;2023-08-30T15:43:59;97421.22;;;16.89;100.00
33781;BME280;20097;50.832;19.100;2023-08-30T15:49:03;97426.09;;;16.69;100.00
33781;BME280;20097;50.832;19.100;2023-08-30T15:54:08;97415.53;;;16.69;100.00
33781;BME280;20097;50.832;19.100;2023-08-30T15:59:15;97420.69;;;16.75;100.00
33781;BME280;20097;50.832;19.100;2023-08-30T16:04:19;97418.38;;;16.51;100.00
33781;BME280;20097;50.832;19.100;2023-08-30T16:09:23;97415.25;;;16.54;100.00
33781;BME280;20097;50.832;19.100;2023-08-30T16:14:28;97408.94;;;16.55;100.00
33781;BME280;20097;50.832;19.100;2023-08-30T16:19:33;97416.41;;;16.46;100.00
33781;BME280;20097;50.832;19.100;2023-08-30T16:24:38;97412.84;;;16.29;100.00
33781;BME280;20097;50.832;19.100;2023-08-30T16:29:43;97416.72;;;16.38;100.00
33781;BME280;20097;50.832;19.100;2023-08-30T16:34:47;97415.94;;;16.37;100.00
33781;BME280;20097;50.832;19.100;2023-08-30T16:39:53;97414.56;;;16.23;100.00
33781;BME280;20097;50.832;19.100;2023-08-30T16:44:58;97402.22;;;16.24;100.00
33781;BME280;20097;50.832;19.100;2023-08-30T16:50:03;97407.94;;;16.21;100.00
33781;BME280;20097;50.832;19.100;2023-08-30T16:55:07;97401.06;;;16.20;100.00
33781;BME280;20097;50.832;19.100;2023-08-30T17:00:15;97414.69;;;16.05;100.00
33781;BME280;20097;50.832;19.100;2023-08-30T17:05:21;97426.59;;;15.96;100.00
33781;BME280;20097;50.832;19.100;2023-08-30T17:10:25;97418.69;;;15.96;100.00
33781;BME280;20097;50.832;19.100;2023-08-30T17:15:31;97412.16;;;15.99;100.00
33781;BME280;20097;50.832;19.100;2023-08-30T17:20:35;97414.56;;;16.00;100.00
33781;BME280;20097;50.832;19.100;2023-08-30T17:25:40;97407.00;;;15.92;100.00
33781;BME280;20097;50.832;19.100;2023-08-30T17:30:45;97404.16;;;15.94;100.00
33781;BME280;20097;50.832;19.100;2023-08-30T17:35:52;97406.47;;;15.90;100.00
33781;BME280;20097;50.832;19.100;2023-08-30T17:40:56;97406.66;;;15.89;100.00
33781;BME280;20097;50.832;19.100;2023-08-30T17:46:02;97412.63;;;15.84;100.00
33781;BME280;20097;50.832;19.100;2023-08-30T17:51:07;97404.59;;;15.79;100.00
33781;BME280;20097;50.832;19.100;2023-08-30T17:56:12;97408.97;;;15.74;100.00
33781;BME280;20097;50.832;19.100;2023-08-30T18:01:23;97408.16;;;15.73;100.00
33781;BME280;20097;50.832;19.100;2023-08-30T18:06:30;97408.25;;;15.67;100.00
33781;BME280;20097;50.832;19.100;2023-08-30T18:11:35;97418.19;;;15.65;100.00
33781;BME280;20097;50.832;19.100;2023-08-30T18:16:40;97409.53;;;15.64;100.00
33781;BME280;20097;50.832;19.100;2023-08-30T18:21:44;97418.66;;;15.62;100.00
33781;BME280;20097;50.832;19.100;2023-08-30T18:26:50;97413.84;;;15.47;100.00
33781;BME280;20097;50.832;19.100;2023-08-30T18:31:56;97409.50;;;15.53;100.00
33781;BME280;20097;50.832;19.100;2023-08-30T18:37:01;97423.66;;;15.52;100.00
33781;BME280;20097;50.832;19.100;2023-08-30T18:42:06;97421.94;;;15.46;100.00
33781;BME280;20097;50.832;19.100;2023-08-30T18:47:12;97423.78;;;15.45;100.00
33781;BME280;20097;50.832;19.100;2023-08-30T18:52:21;97421.13;;;15.45;100.00
33781;BME280;20097;50.832;19.100;2023-08-30T18:57:25;97436.91;;;15.45;100.00
33781;BME280;20097;50.832;19.100;2023-08-30T19:02:32;97422.41;;;15.43;100.00
33781;BME280;20097;50.832;19.100;2023-08-30T19:07:36;97424.88;;;15.38;100.00
33781;BME280;20097;50.832;19.100;2023-08-30T19:12:40;97416.97;;;15.38;100.00
33781;BME280;20097;50.832;19.100;2023-08-30T19:17:46;97415.16;;;15.38;100.00
33781;BME280;20097;50.832;19.100;2023-08-30T19:22:50;97419.63;;;15.38;100.00
33781;BME280;20097;50.832;19.100;2023-08-30T19:27:54;97423.44;;;15.42;100.00
33781;BME280;20097;50.832;19.100;2023-08-30T19:33:00;97429.25;;;15.44;100.00
33781;BME280;20097;50.832;19.100;2023-08-30T19:38:04;97423.44;;;15.42;100.00
33781;BME280;20097;50.832;19.100;2023-08-30T19:43:09;97416.09;;;15.44;100.00
33781;BME280;20097;50.832;19.100;2023-08-30T19:48:15;97420.44;;;15.38;100.00
33781;BME280;20097;50.832;19.100;2023-08-30T19:53:19;97407.72;;;15.35;100.00
33781;BME280;20097;50.832;19.100;2023-08-30T19:58:23;97413.97;;;15.23;100.00
33781;BME280;20097;50.832;19.100;2023-08-30T20:03:30;97396.69;;;15.15;100.00
33781;BME280;20097;50.832;19.100;2023-08-30T20:08:35;97396.31;;;15.11;100.00
33781;BME280;20097;50.832;19.100;2023-08-30T20:13:39;97402.16;;;15.13;100.00
33781;BME280;20097;50.832;19.100;2023-08-30T20:18:45;97401.72;;;15.17;100.00
33781;BME280;20097;50.832;19.100;2023-08-30T20:23:49;97405.72;;;15.19;100.00
33781;BME280;20097;50.832;19.100;2023-08-30T20:28:53;97426.06;;;15.12;100.00
33781;BME280;20097;50.832;19.100;2023-08-30T20:33:59;97429.13;;;15.09;100.00
33781;BME280;20097;50.832;19.100;2023-08-30T20:39:04;97418.94;;;15.12;100.00
33781;BME280;20097;50.832;19.100;2023-08-30T20:44:08;97432.44;;;15.16;100.00
33781;BME280;20097;50.832;19.100;2023-08-30T20:49:15;97437.00;;;15.09;100.00
33781;BME280;20097;50.832;19.100;2023-08-30T20:54:20;97445.81;;;15.14;100.00
33781;BME280;20097;50.832;19.100;2023-08-30T20:59:25;97445.47;;;15.11;100.00
33781;BME280;20097;50.832;19.100;2023-08-30T21:04:32;97450.34;;;15.07;100.00
33781;BME280;20097;50.832;19.100;2023-08-30T21:09:36;97438.38;;;15.11;100.00
33781;BME280;20097;50.832;19.100;2023-08-30T21:14:40;97436.66;;;15.05;100.00
33781;BME280;20097;50.832;19.100;2023-08-30T21:19:46;97440.16;;;14.99;100.00
33781;BME280;20097;50.832;19.100;2023-08-30T21:24:50;97435.03;;;15.04;100.00
33781;BME280;20097;50.832;19.100;2023-08-30T21:29:54;97432.84;;;15.01;100.00
33781;BME280;20097;50.832;19.100;2023-08-30T21:34:59;97438.47;;;15.05;100.00
33781;BME280;20097;50.832;19.100;2023-08-30T21:40:06;97433.06;;;15.00;100.00
33781;BME280;20097;50.832;19.100;2023-08-30T21:45:10;97439.16;;;15.00;100.00
33781;BME280;20097;50.832;19.100;2023-08-30T21:50:16;97445.00;;;15.02;100.00
33781;BME280;20097;50.832;19.100;2023-08-30T21:55:20;97439.16;;;15.00;100.00
33781;BME280;20097;50.832;19.100;2023-08-30T22:00:24;97447.63;;;15.02;100.00
33781;BME280;20097;50.832;19.100;2023-08-30T22:05:32;97454.91;;;15.00;100.00
33781;BME280;20097;50.832;19.100;2023-08-30T22:10:37;97438.19;;;14.95;100.00
33781;BME280;20097;50.832;19.100;2023-08-30T22:15:41;97452.22;;;14.89;100.00
33781;BME280;20097;50.832;19.100;2023-08-30T22:20:47;97437.34;;;14.83;100.00
33781;BME280;20097;50.832;19.100;2023-08-30T22:25:55;97440.75;;;14.83;100.00
33781;BME280;20097;50.832;19.100;2023-08-30T22:30:58;97439.38;;;14.81;100.00
33781;BME280;20097;50.832;19.100;2023-08-30T22:36:05;97437.34;;;14.83;100.00
33781;BME280;20097;50.832;19.100;2023-08-30T22:41:10;97445.78;;;14.85;100.00
33781;BME280;20097;50.832;19.100;2023-08-30T22:46:14;97440.75;;;14.83;100.00
33781;BME280;20097;50.832;19.100;2023-08-30T22:51:21;97443.97;;;14.85;100.00
33781;BME280;20097;50.832;19.100;2023-08-30T22:56:27;97445.47;;;14.81;100.00
33781;BME280;20097;50.832;19.100;2023-08-30T23:01:31;97445.78;;;14.85;100.00
33781;BME280;20097;50.832;19.100;2023-08-30T23:06:37;97450.19;;;14.73;100.00
33781;BME280;20097;50.832;19.100;2023-08-30T23:11:42;97448.34;;;14.73;100.00
33781;BME280;20097;50.832;19.100;2023-08-30T23:16:48;97446.91;;;14.77;100.00
33781;BME280;20097;50.832;19.100;2023-08-30T23:21:53;97451.13;;;14.78;100.00
33781;BME280;20097;50.832;19.100;2023-08-30T23:26:58;97459.22;;;14.77;100.00
33781;BME280;20097;50.832;19.100;2023-08-30T23:32:03;97454.63;;;14.72;100.00
33781;BME280;20097;50.832;19.100;2023-08-30T23:37:09;97455.09;;;14.69;100.00
33781;BME280;20097;50.832;19.100;2023-08-30T23:42:13;97457.78;;;14.63;100.00
33781;BME280;20097;50.832;19.100;2023-08-30T23:47:18;97467.84;;;14.66;100.00
33781;BME280;20097;50.832;19.100;2023-08-30T23:52:23;97463.47;;;14.60;100.00
33781;BME280;20097;50.832;19.100;2023-08-30T23:57:29;97457.63;;;14.58;100.00
